Time;durP1;ratioP1;P1;durP2;ratioP2;P2;SDS_P1;SDS_P2;PMS_P1;PMS_P2;Temp;Humidity;BMP_temperature;BMP_pressure;BME280_temperature;BME280_humidity;BME280_pressure;Samples;Min_cycle;Max_cycle;Signal;HPM_P1;HPM_P2
2022/09/25 00:00:57;;;;;;;10.40;4.50;;;;;;;;;;5093563;28;20077;-80
2022/09/25 00:03:25;;;;;;;9.50;4.85;;;;;;;;;;5093265;28;20050;-80
2022/09/25 00:05:51;;;;;;;12.68;4.93;;;;;;;;;;5093495;28;20028;-80
2022/09/25 00:08:18;;;;;;;9.60;4.57;;;;;;;;;;5093457;28;20428;-81
2022/09/25 00:10:49;;;;;;;9.18;4.80;;;;;;;;;;5093117;28;20044;-80
2022/09/25 00:13:17;;;;;;;11.43;4.90;;;;;;;;;;5093380;28;20110;-80
2022/09/25 00:15:53;;;;;;;9.77;4.65;;;;;;;;;;5093249;28;20032;-80
2022/09/25 00:19:48;;;;;;;7.45;4.40;;;;;;;;;;5093225;28;20028;-80
2022/09/25 00:21:06;;;;;;;7.72;4.57;;;;;;;;;;5073847;28;20144;-80
2022/09/25 00:23:33;;;;;;;11.48;4.70;;;;;;;;;;5056157;28;20062;-80
2022/09/25 00:25:59;;;;;;;9.48;4.05;;;;;;;;;;5056248;28;20381;-80
2022/09/25 00:28:28;;;;;;;7.15;4.35;;;;;;;;;;5056104;28;20028;-80
2022/09/25 00:30:55;;;;;;;9.60;4.65;;;;;;;;;;5056081;28;20047;-80
2022/09/25 00:33:21;;;;;;;8.73;4.32;;;;;;;;;;5055871;28;20025;-80
2022/09/25 00:35:47;;;;;;;8.90;3.92;;;;;;;;;;5055931;28;20040;-80
2022/09/25 00:38:13;;;;;;;9.48;4.15;;;;;;;;;;5056297;28;20047;-80
2022/09/25 00:40:39;;;;;;;8.65;4.10;;;;;;;;;;5073322;28;20032;-80
2022/09/25 00:43:12;;;;;;;13.73;4.47;;;;;;;;;;5055492;28;20119;-80
2022/09/25 00:45:38;;;;;;;7.82;4.03;;;;;;;;;;5055817;28;20064;-80
2022/09/25 00:48:10;;;;;;;11.27;4.10;;;;;;;;;;5055721;28;20016;-80
2022/09/25 00:50:48;;;;;;;6.93;4.30;;;;;;;;;;5055693;28;20099;-80
2022/09/25 00:53:16;;;;;;;7.25;4.40;;;;;;;;;;5073480;28;20029;-80
2022/09/25 00:55:43;;;;;;;9.30;4.30;;;;;;;;;;5055627;28;20033;-80
2022/09/25 00:58:11;;;;;;;7.88;4.35;;;;;;;;;;5055601;28;20060;-80
2022/09/25 01:00:37;;;;;;;9.63;4.13;;;;;;;;;;5055487;28;20029;-80
2022/09/25 01:03:04;;;;;;;9.02;4.13;;;;;;;;;;5055362;28;20021;-80
2022/09/25 01:05:31;;;;;;;7.95;3.88;;;;;;;;;;5055373;28;20032;-80
2022/09/25 01:07:59;;;;;;;8.45;4.30;;;;;;;;;;5055496;28;20024;-79
2022/09/25 01:10:25;;;;;;;6.80;3.90;;;;;;;;;;5055212;28;20499;-80
2022/09/25 01:12:52;;;;;;;9.45;4.38;;;;;;;;;;5055439;28;20070;-80
2022/09/25 01:15:20;;;;;;;9.98;4.00;;;;;;;;;;5073160;28;20067;-80
2022/09/25 01:17:55;;;;;;;11.02;4.53;;;;;;;;;;5073294;28;20031;-80
2022/09/25 01:20:24;;;;;;;8.23;4.32;;;;;;;;;;5073080;28;20032;-80
2022/09/25 01:23:04;;;;;;;6.78;3.88;;;;;;;;;;5055331;28;20492;-80
2022/09/25 01:25:49;;;;;;;12.55;4.18;;;;;;;;;;5055076;28;20017;-80
2022/09/25 01:28:15;;;;;;;8.07;3.80;;;;;;;;;;5055382;28;20036;-80
2022/09/25 01:30:43;;;;;;;7.13;3.92;;;;;;;;;;5055108;28;20036;-80
2022/09/25 01:33:13;;;;;;;9.80;4.30;;;;;;;;;;5055246;28;20039;-80
2022/09/25 01:35:45;;;;;;;7.78;3.92;;;;;;;;;;5054892;28;20025;-79
2022/09/25 01:38:14;;;;;;;7.65;3.70;;;;;;;;;;5055186;28;20052;-79
2022/09/25 01:40:49;;;;;;;6.50;3.70;;;;;;;;;;5055187;28;20036;-79
2022/09/25 01:43:17;;;;;;;6.63;4.00;;;;;;;;;;5073038;28;20036;-79
2022/09/25 01:45:51;;;;;;;8.05;3.72;;;;;;;;;;5054986;28;20162;-79
2022/09/25 01:48:19;;;;;;;6.13;3.47;;;;;;;;;;5054949;28;20115;-79
2022/09/25 01:50:55;;;;;;;8.23;3.65;;;;;;;;;;5054899;28;20501;-79
2022/09/25 01:53:24;;;;;;;7.95;3.83;;;;;;;;;;5057394;28;20031;-79
2022/09/25 01:55:54;;;;;;;9.30;3.70;;;;;;;;;;5058857;28;20032;-79
2022/09/25 01:58:32;;;;;;;9.77;3.90;;;;;;;;;;5058941;28;20035;-79
2022/09/25 02:01:02;;;;;;;6.05;3.80;;;;;;;;;;5059007;28;20430;-79
2022/09/25 02:03:32;;;;;;;7.22;3.40;;;;;;;;;;5058860;28;20113;-79
2022/09/25 02:06:03;;;;;;;11.20;3.75;;;;;;;;;;5076903;28;20089;-79
2022/09/25 02:08:33;;;;;;;7.07;3.72;;;;;;;;;;5058830;28;20032;-79
2022/09/25 02:11:01;;;;;;;6.47;3.67;;;;;;;;;;5058571;28;20048;-79
2022/09/25 02:13:32;;;;;;;5.22;3.47;;;;;;;;;;5058831;28;20020;-79
2022/09/25 02:16:04;;;;;;;6.38;3.58;;;;;;;;;;5058770;28;20024;-80
2022/09/25 02:21:15;;;;;;;6.47;3.70;;;;;;;;;;5076672;28;20538;-79
2022/09/25 02:23:50;;;;;;;8.98;3.92;;;;;;;;;;5058196;28;20388;-79
2022/09/25 02:26:22;;;;;;;9.18;3.58;;;;;;;;;;5058549;28;20489;-79
2022/09/25 02:28:48;;;;;;;7.63;4.00;;;;;;;;;;5058469;28;20025;-79
2022/09/25 02:31:16;;;;;;;6.97;3.67;;;;;;;;;;5058377;28;20032;-79
2022/09/25 02:33:42;;;;;;;7.13;3.85;;;;;;;;;;5058394;28;20027;-79
2022/09/25 02:36:16;;;;;;;6.63;3.83;;;;;;;;;;5058338;28;20556;-79
2022/09/25 02:38:42;;;;;;;11.10;4.60;;;;;;;;;;5058115;28;20027;-79
2022/09/25 02:41:14;;;;;;;6.78;3.75;;;;;;;;;;5058209;28;20028;-79
2022/09/25 02:43:49;;;;;;;7.93;4.05;;;;;;;;;;5058211;28;20024;-79
2022/09/25 02:46:19;;;;;;;9.25;3.38;;;;;;;;;;5058404;28;20029;-79
2022/09/25 02:48:53;;;;;;;5.68;3.40;;;;;;;;;;5058043;28;20031;-78
2022/09/25 02:51:28;;;;;;;6.65;3.70;;;;;;;;;;5057708;28;20036;-79
2022/09/25 02:54:00;;;;;;;7.95;3.90;;;;;;;;;;5057891;28;20096;-79
2022/09/25 02:56:32;;;;;;;6.90;3.78;;;;;;;;;;5057917;28;20430;-79
2022/09/25 02:59:00;;;;;;;8.68;4.15;;;;;;;;;;5057659;28;20085;-80
2022/09/25 03:01:28;;;;;;;8.70;3.88;;;;;;;;;;5057602;28;20025;-79
2022/09/25 03:03:55;;;;;;;8.70;3.88;;;;;;;;;;5074943;28;20024;-79
2022/09/25 03:06:22;;;;;;;9.05;3.70;;;;;;;;;;5057641;28;20115;-79
2022/09/25 03:08:51;;;;;;;5.82;3.17;;;;;;;;;;5057646;28;20036;-80
2022/09/25 03:11:20;;;;;;;6.90;3.60;;;;;;;;;;5057299;28;20036;-79
2022/09/25 03:13:46;;;;;;;7.10;3.47;;;;;;;;;;5057650;28;20032;-79
2022/09/25 03:16:21;;;;;;;8.20;3.80;;;;;;;;;;5075610;28;20052;-79
2022/09/25 03:18:47;;;;;;;6.65;3.50;;;;;;;;;;5061004;28;20048;-79
2022/09/25 03:21:13;;;;;;;7.07;3.90;;;;;;;;;;5094285;28;20064;-79
2022/09/25 03:23:39;;;;;;;9.25;3.63;;;;;;;;;;5094284;28;20028;-80
2022/09/25 03:26:06;;;;;;;9.07;4.53;;;;;;;;;;5094265;28;20028;-79
2022/09/25 03:28:32;;;;;;;8.85;3.78;;;;;;;;;;5094304;28;20047;-79
2022/09/25 03:30:58;;;;;;;8.13;4.10;;;;;;;;;;5093851;28;20032;-80
2022/09/25 03:33:25;;;;;;;9.40;3.70;;;;;;;;;;5094302;28;20384;-79
2022/09/25 03:36:05;;;;;;;6.68;3.80;;;;;;;;;;5094098;28;20540;-80
2022/09/25 03:38:32;;;;;;;9.25;3.45;;;;;;;;;;5095456;28;20051;-79
2022/09/25 03:40:58;;;;;;;7.57;3.25;;;;;;;;;;5094024;28;20051;-79
2022/09/25 03:43:24;;;;;;;9.63;3.78;;;;;;;;;;5093841;28;20124;-80
2022/09/25 03:45:50;;;;;;;7.10;3.55;;;;;;;;;;5093858;28;20177;-79
2022/09/25 03:48:16;;;;;;;8.40;3.97;;;;;;;;;;5093817;28;20384;-79
2022/09/25 03:50:45;;;;;;;6.00;3.22;;;;;;;;;;5093863;28;20035;-79
2022/09/25 03:53:11;;;;;;;6.70;3.72;;;;;;;;;;5093695;28;20024;-79
2022/09/25 03:55:37;;;;;;;7.10;4.13;;;;;;;;;;5093486;28;20032;-79
2022/09/25 03:58:03;;;;;;;8.18;3.72;;;;;;;;;;5093709;28;20024;-78
2022/09/25 04:00:29;;;;;;;8.57;4.10;;;;;;;;;;5093544;28;20056;-80
2022/09/25 04:02:58;;;;;;;6.82;4.50;;;;;;;;;;5093441;28;20030;-79
2022/09/25 04:05:24;;;;;;;6.47;3.45;;;;;;;;;;5093513;28;20027;-79
2022/09/25 04:07:50;;;;;;;7.97;3.50;;;;;;;;;;5093225;28;20059;-79
2022/09/25 04:10:16;;;;;;;7.80;3.70;;;;;;;;;;5093416;28;20032;-79
2022/09/25 04:12:42;;;;;;;6.93;3.88;;;;;;;;;;5093295;28;20111;-80
2022/09/25 04:15:09;;;;;;;11.73;3.90;;;;;;;;;;5093363;28;20119;-80
2022/09/25 04:17:35;;;;;;;6.05;3.50;;;;;;;;;;5093245;28;20024;-80
2022/09/25 04:20:01;;;;;;;7.18;3.47;;;;;;;;;;5092960;28;20079;-79
2022/09/25 04:22:27;;;;;;;9.38;3.90;;;;;;;;;;5093211;28;20391;-79
2022/09/25 04:24:53;;;;;;;6.68;3.30;;;;;;;;;;5093148;28;20027;-79
2022/09/25 04:27:23;;;;;;;6.60;3.90;;;;;;;;;;5093044;28;20036;-79
2022/09/25 04:29:49;;;;;;;6.20;3.65;;;;;;;;;;5092865;28;20366;-78
2022/09/25 04:35:01;;;;;;;8.05;3.45;;;;;;;;;;5094642;28;20039;-79
2022/09/25 04:37:27;;;;;;;8.50;3.80;;;;;;;;;;5093932;28;20423;-79
2022/09/25 04:39:56;;;;;;;5.38;3.55;;;;;;;;;;5092473;28;20032;-78
2022/09/25 04:42:26;;;;;;;6.97;4.13;;;;;;;;;;5092610;28;20084;-78
2022/09/25 04:44:52;;;;;;;10.25;3.97;;;;;;;;;;5093892;28;20099;-78
2022/09/25 04:47:19;;;;;;;8.13;3.53;;;;;;;;;;5092552;28;20058;-78
2022/09/25 04:49:46;;;;;;;8.15;4.30;;;;;;;;;;5092570;28;20025;-79
2022/09/25 04:52:13;;;;;;;9.23;3.60;;;;;;;;;;5092381;28;20365;-79
2022/09/25 04:54:40;;;;;;;11.23;3.55;;;;;;;;;;5092689;28;20024;-79
2022/09/25 04:57:06;;;;;;;6.05;3.90;;;;;;;;;;5092597;28;20059;-79
2022/09/25 04:59:32;;;;;;;6.38;3.17;;;;;;;;;;5092554;28;20043;-79
2022/09/25 05:01:58;;;;;;;10.75;3.67;;;;;;;;;;5092514;28;20035;-79
2022/09/25 05:04:24;;;;;;;6.38;3.17;;;;;;;;;;5092213;28;20028;-79
2022/09/25 05:06:50;;;;;;;7.53;3.42;;;;;;;;;;5092494;28;20028;-79
2022/09/25 05:09:17;;;;;;;6.55;3.53;;;;;;;;;;5092397;28;20073;-79
2022/09/25 05:11:43;;;;;;;6.63;3.67;;;;;;;;;;5093615;28;20036;-79
2022/09/25 05:14:09;;;;;;;5.90;3.20;;;;;;;;;;5092348;28;20056;-79
2022/09/25 05:16:35;;;;;;;6.78;3.15;;;;;;;;;;5092302;28;20085;-79
2022/09/25 05:19:01;;;;;;;7.38;3.67;;;;;;;;;;5091942;28;20047;-79
2022/09/25 05:21:27;;;;;;;10.07;3.75;;;;;;;;;;5092287;28;20085;-79
2022/09/25 05:23:55;;;;;;;7.20;3.55;;;;;;;;;;5092145;28;20472;-79
2022/09/25 05:26:22;;;;;;;7.05;4.20;;;;;;;;;;5092117;28;20049;-79
2022/09/25 05:28:51;;;;;;;6.70;3.97;;;;;;;;;;5091682;28;20066;-80
2022/09/25 05:31:17;;;;;;;8.20;4.28;;;;;;;;;;5092026;28;20032;-79
2022/09/25 05:33:44;;;;;;;6.88;3.92;;;;;;;;;;5092067;28;20043;-79
2022/09/25 05:36:11;;;;;;;5.78;3.38;;;;;;;;;;5092054;28;20122;-79
2022/09/25 05:38:38;;;;;;;9.75;3.75;;;;;;;;;;5093307;28;20020;-79
2022/09/25 05:41:05;;;;;;;7.25;3.78;;;;;;;;;;5091918;28;20115;-80
2022/09/25 05:43:31;;;;;;;5.90;3.17;;;;;;;;;;5092092;28;20106;-79
2022/09/25 05:45:58;;;;;;;6.10;3.80;;;;;;;;;;5091896;28;20032;-79
2022/09/25 05:48:25;;;;;;;7.18;3.35;;;;;;;;;;5092012;28;20378;-79
2022/09/25 05:50:55;;;;;;;7.65;3.90;;;;;;;;;;5091829;28;20472;-79
2022/09/25 05:53:21;;;;;;;6.63;3.85;;;;;;;;;;5091703;28;20430;-81
2022/09/25 05:55:50;;;;;;;7.05;3.80;;;;;;;;;;5091859;28;20028;-79
2022/09/25 05:58:16;;;;;;;8.75;3.95;;;;;;;;;;5091785;28;20027;-79
2022/09/25 06:00:43;;;;;;;7.97;4.13;;;;;;;;;;5091807;28;20059;-79
2022/09/25 06:03:09;;;;;;;11.73;4.60;;;;;;;;;;5093240;28;20028;-80
2022/09/25 06:05:35;;;;;;;7.30;4.40;;;;;;;;;;5091708;28;20032;-80
2022/09/25 06:08:02;;;;;;;10.23;5.18;;;;;;;;;;5091760;28;20406;-81
2022/09/25 06:10:29;;;;;;;9.38;5.60;;;;;;;;;;5091670;28;20032;-81
2022/09/25 06:12:58;;;;;;;8.02;4.35;;;;;;;;;;5091735;28;20048;-79
2022/09/25 06:15:29;;;;;;;7.22;4.07;;;;;;;;;;5091663;28;20031;-81
2022/09/25 06:17:55;;;;;;;7.75;3.55;;;;;;;;;;5091720;28;20032;-81
2022/09/25 06:20:22;;;;;;;6.47;3.78;;;;;;;;;;5075852;28;20076;-78
2022/09/25 06:22:54;;;;;;;6.28;3.85;;;;;;;;;;5072713;28;20020;-79
2022/09/25 06:25:25;;;;;;;5.80;4.05;;;;;;;;;;5054781;28;20489;-79
2022/09/25 06:27:55;;;;;;;7.10;3.38;;;;;;;;;;5054538;28;20025;-79
2022/09/25 06:30:21;;;;;;;7.50;3.50;;;;;;;;;;5054561;28;20025;-79
2022/09/25 06:32:49;;;;;;;6.80;3.70;;;;;;;;;;5072517;28;20029;-80
2022/09/25 06:35:16;;;;;;;6.43;3.60;;;;;;;;;;5054601;28;20034;-81
2022/09/25 06:37:42;;;;;;;6.38;3.88;;;;;;;;;;5054494;28;20025;-79
2022/09/25 06:40:08;;;;;;;7.55;3.45;;;;;;;;;;5056260;28;20392;-81
2022/09/25 06:42:34;;;;;;;6.70;3.30;;;;;;;;;;5058101;28;20028;-80
2022/09/25 06:45:01;;;;;;;8.80;4.13;;;;;;;;;;5076139;28;20024;-81
2022/09/25 06:47:27;;;;;;;7.25;4.18;;;;;;;;;;5058052;28;20063;-79
2022/09/25 06:49:53;;;;;;;7.07;3.75;;;;;;;;;;5058043;28;20029;-79
2022/09/25 06:52:19;;;;;;;7.38;3.90;;;;;;;;;;5075978;28;20108;-81
2022/09/25 06:54:45;;;;;;;6.90;3.70;;;;;;;;;;5058046;28;20024;-81
2022/09/25 06:57:12;;;;;;;7.20;4.10;;;;;;;;;;5075693;28;20078;-79
2022/09/25 06:59:38;;;;;;;7.00;3.70;;;;;;;;;;5057783;28;20504;-80
2022/09/25 07:04:50;;;;;;;8.45;3.95;;;;;;;;;;5076083;28;20035;-80
2022/09/25 07:07:18;;;;;;;8.23;4.03;;;;;;;;;;5057746;28;20177;-80
2022/09/25 07:09:44;;;;;;;7.90;3.92;;;;;;;;;;5057586;28;20029;-79
2022/09/25 07:12:10;;;;;;;8.73;4.43;;;;;;;;;;5057554;28;20079;-80
2022/09/25 07:14:37;;;;;;;9.05;4.55;;;;;;;;;;5057423;28;20472;-80
2022/09/25 07:17:03;;;;;;;6.82;4.57;;;;;;;;;;5057585;28;20044;-79
2022/09/25 07:19:29;;;;;;;6.13;3.90;;;;;;;;;;5072909;28;20113;-80
2022/09/25 07:21:55;;;;;;;7.30;3.83;;;;;;;;;;5094490;28;20024;-80
2022/09/25 07:24:21;;;;;;;7.50;3.95;;;;;;;;;;5094361;28;20038;-80
2022/09/25 07:26:48;;;;;;;6.05;4.07;;;;;;;;;;5095675;28;20361;-80
2022/09/25 07:29:15;;;;;;;8.55;3.85;;;;;;;;;;5094036;28;20024;-79
2022/09/25 07:31:42;;;;;;;6.90;4.00;;;;;;;;;;5094091;28;20106;-79
2022/09/25 07:34:08;;;;;;;5.78;4.05;;;;;;;;;;5094165;28;20472;-80
2022/09/25 07:36:37;;;;;;;7.57;4.22;;;;;;;;;;5094168;28;20055;-80
2022/09/25 07:39:03;;;;;;;6.80;4.47;;;;;;;;;;5093779;28;20377;-80
2022/09/25 07:41:30;;;;;;;7.05;4.35;;;;;;;;;;5094073;28;20028;-80
2022/09/25 07:43:57;;;;;;;7.57;4.35;;;;;;;;;;5093981;28;20020;-80
2022/09/25 07:46:27;;;;;;;6.15;4.05;;;;;;;;;;5094031;28;20063;-81
2022/09/25 07:48:53;;;;;;;8.50;4.53;;;;;;;;;;5095180;28;20027;-80
2022/09/25 07:51:21;;;;;;;8.00;4.25;;;;;;;;;;5094989;28;20044;-80
2022/09/25 07:53:47;;;;;;;8.25;4.15;;;;;;;;;;5094830;28;20016;-80
2022/09/25 07:56:13;;;;;;;8.00;4.53;;;;;;;;;;5093760;28;20051;-80
2022/09/25 07:58:40;;;;;;;8.95;4.35;;;;;;;;;;5093704;28;20053;-80
2022/09/25 08:01:07;;;;;;;10.50;4.78;;;;;;;;;;5093646;28;20069;-79
2022/09/25 08:03:34;;;;;;;9.27;4.57;;;;;;;;;;5093315;28;20028;-80
2022/09/25 08:06:11;;;;;;;7.47;4.40;;;;;;;;;;5093635;28;20161;-80
2022/09/25 08:08:37;;;;;;;7.45;4.47;;;;;;;;;;5093713;28;20408;-81
2022/09/25 08:11:11;;;;;;;10.20;3.95;;;;;;;;;;5093353;28;20036;-80
2022/09/25 08:13:38;;;;;;;9.40;4.53;;;;;;;;;;5094538;28;20028;-80
2022/09/25 08:16:05;;;;;;;6.45;4.13;;;;;;;;;;5093343;28;20038;-80
2022/09/25 08:18:31;;;;;;;10.02;4.70;;;;;;;;;;5091793;28;20082;-80
2022/09/25 08:21:04;;;;;;;6.97;4.15;;;;;;;;;;5056388;28;20074;-80
2022/09/25 08:23:30;;;;;;;;;;;;;;;;;;5056507;28;20032;-80
2022/09/25 08:25:56;;;;;;;10.07;4.65;;;;;;;;;;5074104;28;19911;-80
2022/09/25 08:28:22;;;;;;;7.70;4.63;;;;;;;;;;5056114;28;20416;-81
2022/09/25 08:30:48;;;;;;;7.55;4.35;;;;;;;;;;5055942;28;20064;-80
2022/09/25 08:33:14;;;;;;;8.48;4.25;;;;;;;;;;5056063;28;20115;-79
2022/09/25 08:35:41;;;;;;;6.70;3.78;;;;;;;;;;5055815;28;20024;-80
2022/09/25 08:38:07;;;;;;;7.00;4.13;;;;;;;;;;5055908;28;20427;-80
2022/09/25 08:40:37;;;;;;;6.53;4.00;;;;;;;;;;5055968;28;20017;-80
2022/09/25 08:43:04;;;;;;;5.03;3.47;;;;;;;;;;5055755;28;20060;-78
2022/09/25 08:51:16;;;;;;;9.68;4.72;;;;;;;;;;5073844;28;20046;-79
2022/09/25 08:53:44;;;;;;;7.80;4.32;;;;;;;;;;5055712;28;20028;-80
2022/09/25 08:56:16;;;;;;;6.30;3.88;;;;;;;;;;5055688;28;20064;-80
2022/09/25 08:58:45;;;;;;;8.00;3.60;;;;;;;;;;5055543;28;20027;-79
2022/09/25 09:01:14;;;;;;;11.13;4.38;;;;;;;;;;5055751;28;20064;-80
2022/09/25 09:03:58;;;;;;;8.98;4.85;;;;;;;;;;5054975;28;20474;-79
2022/09/25 09:06:26;;;;;;;12.07;5.05;;;;;;;;;;5073493;28;20103;-81
2022/09/25 09:08:59;;;;;;;6.80;4.05;;;;;;;;;;5055335;28;20025;-80
2022/09/25 09:11:25;;;;;;;;;;;;;;;;;;5055887;28;20485;-80
2022/09/25 09:13:51;;;;;;;10.00;4.13;;;;;;;;;;5055518;28;19910;-80
2022/09/25 09:16:17;;;;;;;5.70;3.40;;;;;;;;;;5073485;28;20021;-79
2022/09/25 09:18:44;;;;;;;9.10;3.97;;;;;;;;;;5055197;28;20040;-79
2022/09/25 09:21:13;;;;;;;8.10;3.67;;;;;;;;;;5055217;28;20036;-80
2022/09/25 09:24:05;;;;;;;5.00;3.47;;;;;;;;;;5055944;28;20131;-79
2022/09/25 09:26:34;;;;;;;6.13;3.67;;;;;;;;;;5055442;28;20476;-79
2022/09/25 09:29:18;;;;;;;7.38;3.85;;;;;;;;;;5055460;28;20028;-80
2022/09/25 09:31:57;;;;;;;4.82;3.40;;;;;;;;;;5055145;28;20036;-79
2022/09/25 09:34:46;;;;;;;9.73;3.40;;;;;;;;;;5055402;28;20052;-80
2022/09/25 09:37:19;;;;;;;18.20;3.42;;;;;;;;;;5027203;28;20373;-80
2022/09/25 09:40:01;;;;;;;6.65;3.45;;;;;;;;;;5055362;28;20119;-79
2022/09/25 09:42:33;;;;;;;6.25;3.40;;;;;;;;;;5073525;28;20427;-80
2022/09/25 09:45:20;;;;;;;11.68;3.67;;;;;;;;;;5073275;28;20029;-78
2022/09/25 09:47:46;;;;;;;6.20;3.63;;;;;;;;;;5054929;28;20082;-80
2022/09/25 09:50:32;;;;;;;9.18;3.70;;;;;;;;;;5055039;28;20443;-81
2022/09/25 09:53:01;;;;;;;4.93;2.90;;;;;;;;;;5055044;28;20020;-81
2022/09/25 09:55:40;;;;;;;5.75;3.30;;;;;;;;;;5054975;28;20031;-81
2022/09/25 09:58:12;;;;;;;4.07;2.85;;;;;;;;;;5054820;28;20498;-80
2022/09/25 10:00:38;;;;;;;5.40;3.47;;;;;;;;;;5055010;28;20121;-81
2022/09/25 10:03:10;;;;;;;7.72;3.88;;;;;;;;;;5054862;28;20064;-81
2022/09/25 10:05:42;;;;;;;10.32;3.60;;;;;;;;;;5054994;28;20035;-81
2022/09/25 10:08:11;;;;;;;7.45;3.95;;;;;;;;;;5054619;28;20540;-81
2022/09/25 10:10:46;;;;;;;7.63;4.25;;;;;;;;;;5054845;28;20043;-81
2022/09/25 10:13:31;;;;;;;6.75;4.05;;;;;;;;;;5055354;28;20119;-81
2022/09/25 10:16:00;;;;;;;7.53;3.58;;;;;;;;;;5058791;28;20484;-81
2022/09/25 10:18:47;;;;;;;6.15;3.88;;;;;;;;;;5058289;28;20036;-81
2022/09/25 10:21:15;;;;;;;6.57;3.97;;;;;;;;;;5076629;28;20032;-80
2022/09/25 10:23:41;;;;;;;6.35;3.88;;;;;;;;;;5058499;28;20450;-81
2022/09/25 10:26:26;;;;;;;6.22;3.53;;;;;;;;;;5058518;28;20102;-80
2022/09/25 10:28:56;;;;;;;6.20;3.70;;;;;;;;;;5076130;28;20503;-80
2022/09/25 10:31:23;;;;;;;5.70;3.65;;;;;;;;;;5058357;28;20040;-81
2022/09/25 10:33:58;;;;;;;5.82;3.75;;;;;;;;;;5058339;28;20111;-81
2022/09/25 10:36:31;;;;;;;7.20;3.30;;;;;;;;;;5058431;28;20388;-81
2022/09/25 10:38:58;;;;;;;6.05;3.72;;;;;;;;;;5058321;28;20492;-81
2022/09/25 10:41:25;;;;;;;7.88;3.58;;;;;;;;;;5057933;28;20082;-80
2022/09/25 10:43:53;;;;;;;11.63;4.20;;;;;;;;;;5058188;28;20039;-81
2022/09/25 10:50:09;;;;;;;7.55;3.92;;;;;;;;;;5058097;28;20029;-80
2022/09/25 10:52:20;;;;;;;6.40;4.10;;;;;;;;;;5076034;28;20181;-80
2022/09/25 10:54:46;;;;;;;8.35;4.28;;;;;;;;;;5075814;28;20466;-80
2022/09/25 10:57:32;;;;;;;8.60;4.78;;;;;;;;;;5057995;28;20419;-80
2022/09/25 10:59:59;;;;;;;7.90;4.82;;;;;;;;;;5076029;28;20021;-81
2022/09/25 11:02:39;;;;;;;9.18;5.40;;;;;;;;;;5075745;28;20476;-80
2022/09/25 11:05:07;;;;;;;8.85;5.55;;;;;;;;;;5075789;28;20071;-80
2022/09/25 11:07:34;;;;;;;8.05;5.80;;;;;;;;;;5057700;28;20028;-80
2022/09/25 11:10:00;;;;;;;8.25;5.72;;;;;;;;;;5057314;28;20037;-81
2022/09/25 11:12:28;;;;;;;11.80;7.13;;;;;;;;;;5057711;28;20098;-81
2022/09/25 11:15:04;;;;;;;11.43;5.93;;;;;;;;;;5057661;28;20384;-80
2022/09/25 11:17:31;;;;;;;9.00;6.10;;;;;;;;;;5057470;28;20086;-80
2022/09/25 11:20:28;;;;;;;12.38;7.35;;;;;;;;;;5080097;28;20044;-80
2022/09/25 11:23:03;;;;;;;12.07;8.20;;;;;;;;;;5074812;28;20433;-81
2022/09/25 11:25:36;;;;;;;13.05;7.57;;;;;;;;;;5093653;28;20040;-81
2022/09/25 11:28:15;;;;;;;11.75;7.38;;;;;;;;;;5094326;28;20081;-81
2022/09/25 11:30:48;;;;;;;12.27;7.38;;;;;;;;;;5093986;28;20496;-80
2022/09/25 11:33:23;;;;;;;15.77;8.30;;;;;;;;;;5094227;28;20099;-81
2022/09/25 11:35:53;;;;;;;13.45;8.00;;;;;;;;;;5094179;28;20028;-80
2022/09/25 11:41:30;;;;;;;15.23;7.63;;;;;;;;;;5095478;28;20051;-81
2022/09/25 11:43:59;;;;;;;14.65;8.88;;;;;;;;;;5093992;28;20016;-81
2022/09/25 11:46:49;;;;;;;13.73;8.93;;;;;;;;;;5093846;28;20031;-80
2022/09/25 11:49:27;;;;;;;13.40;9.13;;;;;;;;;;5093952;28;20063;-80
2022/09/25 11:52:05;;;;;;;12.82;9.15;;;;;;;;;;5093705;28;20079;-80
2022/09/25 11:54:58;;;;;;;13.50;9.38;;;;;;;;;;5093430;28;20119;-80
2022/09/25 11:57:24;;;;;;;16.45;8.63;;;;;;;;;;5089138;28;20119;-81
2022/09/25 11:59:59;;;;;;;13.90;9.80;;;;;;;;;;5093613;28;20024;-81
2022/09/25 12:02:28;;;;;;;12.00;8.98;;;;;;;;;;5093579;28;20499;-81
2022/09/25 12:05:17;;;;;;;16.88;9.73;;;;;;;;;;5093523;28;20511;-80
2022/09/25 12:07:53;;;;;;;18.88;9.15;;;;;;;;;;5093426;28;20050;-80
2022/09/25 12:10:29;;;;;;;12.88;9.52;;;;;;;;;;5093373;28;20035;-80
2022/09/25 12:13:07;;;;;;;16.42;9.52;;;;;;;;;;5093371;28;20027;-80
2022/09/25 12:15:37;;;;;;;13.18;9.18;;;;;;;;;;5093585;28;20020;-80
2022/09/25 12:18:15;;;;;;;13.20;8.95;;;;;;;;;;5093201;28;20032;-79
2022/09/25 12:20:51;;;;;;;13.43;8.43;;;;;;;;;;5075074;28;20053;-80
2022/09/25 12:23:35;;;;;;;13.88;8.80;;;;;;;;;;5056310;28;20029;-80
2022/09/25 12:26:07;;;;;;;12.35;8.60;;;;;;;;;;5074164;28;20028;-81
2022/09/25 12:28:51;;;;;;;15.15;8.68;;;;;;;;;;5056025;28;20020;-81
2022/09/25 12:31:26;;;;;;;12.43;9.18;;;;;;;;;;5056117;28;20036;-81
2022/09/25 12:33:56;;;;;;;15.55;8.90;;;;;;;;;;5056115;28;20124;-80
2022/09/25 12:36:35;;;;;;;12.50;8.98;;;;;;;;;;5055774;28;20028;-79
2022/09/25 12:39:07;;;;;;;15.27;9.15;;;;;;;;;;5055646;28;20078;-80
2022/09/25 12:41:39;;;;;;;20.30;10.43;;;;;;;;;;5055847;28;20027;-79
2022/09/25 12:44:05;;;;;;;14.85;9.85;;;;;;;;;;5056163;28;20028;-78
2022/09/25 12:46:43;;;;;;;15.50;10.18;;;;;;;;;;5055954;28;20021;-79
2022/09/25 12:49:13;;;;;;;13.77;9.18;;;;;;;;;;5055827;28;20024;-79
2022/09/25 12:51:39;;;;;;;13.68;9.98;;;;;;;;;;5055756;28;20508;-79
2022/09/25 12:54:25;;;;;;;17.48;9.65;;;;;;;;;;5055525;28;20032;-81
2022/09/25 12:57:04;;;;;;;18.92;10.32;;;;;;;;;;5038864;28;20044;-79
2022/09/25 12:59:39;;;;;;;16.73;10.68;;;;;;;;;;5055617;28;20423;-80
2022/09/25 13:02:14;;;;;;;16.88;10.75;;;;;;;;;;5073296;28;20377;-79
2022/09/25 13:05:01;;;;;;;15.68;9.40;;;;;;;;;;5055528;28;20024;-81
2022/09/25 13:07:27;;;;;;;15.25;9.73;;;;;;;;;;5055703;28;20113;-81
2022/09/25 13:09:53;;;;;;;14.98;10.90;;;;;;;;;;5055454;28;20024;-81
2022/09/25 13:12:39;;;;;;;17.55;11.30;;;;;;;;;;5055220;28;20104;-80
2022/09/25 13:15:22;;;;;;;16.08;12.02;;;;;;;;;;5073468;28;20035;-81
2022/09/25 13:17:49;;;;;;;15.33;10.67;;;;;;;;;;5055544;28;20029;-81
2022/09/25 13:20:27;;;;;;;16.05;11.77;;;;;;;;;;5082626;28;20279;-79
2022/09/25 13:23:06;;;;;;;17.50;12.20;;;;;;;;;;5093558;28;20028;-80
2022/09/25 13:25:40;;;;;;;15.85;10.07;;;;;;;;;;5092100;28;20024;-80
2022/09/25 13:28:07;;;;;;;18.92;12.32;;;;;;;;;;5092278;28;20523;-80
2022/09/25 13:30:33;;;;;;;20.50;11.50;;;;;;;;;;5091714;28;20028;-79
2022/09/25 13:33:01;;;;;;;17.17;12.15;;;;;;;;;;5092105;28;20032;-80
2022/09/25 13:35:28;;;;;;;18.90;12.82;;;;;;;;;;5092089;28;20099;-80
2022/09/25 13:37:56;;;;;;;16.77;11.52;;;;;;;;;;5092067;28;20038;-78
2022/09/25 13:40:44;;;;;;;18.88;12.25;;;;;;;;;;5091668;28;20024;-80
2022/09/25 13:43:22;;;;;;;17.10;12.75;;;;;;;;;;5092039;28;20517;-80
2022/09/25 13:46:09;;;;;;;17.98;13.48;;;;;;;;;;5091976;28;20024;-80
2022/09/25 13:48:36;;;;;;;21.52;12.90;;;;;;;;;;5093061;28;20016;-80
2022/09/25 13:51:17;;;;;;;15.95;10.48;;;;;;;;;;5096047;28;20071;-80
2022/09/25 13:54:03;;;;;;;15.63;11.93;;;;;;;;;;5095779;28;20020;-80
2022/09/25 13:56:32;;;;;;;21.67;11.63;;;;;;;;;;5096088;28;20039;-80
2022/09/25 13:59:01;;;;;;;17.55;12.50;;;;;;;;;;5096038;28;20024;-80
2022/09/25 14:01:37;;;;;;;17.92;12.38;;;;;;;;;;5095968;28;20073;-80
2022/09/25 14:04:16;;;;;;;15.68;10.98;;;;;;;;;;5095777;28;20495;-80
2022/09/25 14:06:43;;;;;;;16.15;12.05;;;;;;;;;;5083241;28;20397;-77
2022/09/25 14:09:11;;;;;;;18.90;12.40;;;;;;;;;;5082728;28;20020;-78
2022/09/25 14:11:38;;;;;;;16.15;12.07;;;;;;;;;;5080399;28;20039;-78
2022/09/25 14:14:09;;;;;;;19.65;12.50;;;;;;;;;;5077041;28;20032;-80
2022/09/25 14:16:51;;;;;;;16.67;11.02;;;;;;;;;;5075280;28;20036;-77
2022/09/25 14:19:23;;;;;;;18.55;11.85;;;;;;;;;;5077063;28;20607;-79
2022/09/25 14:21:50;;;;;;;17.43;12.33;;;;;;;;;;5075050;28;20047;-78
2022/09/25 14:24:27;;;;;;;15.52;11.05;;;;;;;;;;5075221;28;20036;-79
2022/09/25 14:26:54;;;;;;;17.48;12.00;;;;;;;;;;5075210;28;20025;-78
2022/09/25 14:29:29;;;;;;;17.65;13.00;;;;;;;;;;5094170;28;20492;-79
2022/09/25 14:32:04;;;;;;;21.83;11.70;;;;;;;;;;5088858;28;20036;-78
2022/09/25 14:34:36;;;;;;;15.82;11.70;;;;;;;;;;5084952;28;20029;-78
2022/09/25 14:37:21;;;;;;;16.63;11.88;;;;;;;;;;5085695;28;20040;-79
2022/09/25 14:39:57;;;;;;;15.82;10.88;;;;;;;;;;5094238;28;20020;-79
2022/09/25 14:42:29;;;;;;;18.73;12.90;;;;;;;;;;5094835;28;20521;-79
2022/09/25 14:45:15;;;;;;;17.70;13.30;;;;;;;;;;5095259;28;20024;-78
2022/09/25 14:47:43;;;;;;;19.75;13.15;;;;;;;;;;5094947;28;20090;-79
2022/09/25 14:50:21;;;;;;;19.75;12.65;;;;;;;;;;5094874;28;20031;-79
2022/09/25 14:52:49;;;;;;;17.65;11.18;;;;;;;;;;5094995;28;20032;-80
2022/09/25 14:55:19;;;;;;;20.67;13.63;;;;;;;;;;5095023;28;20457;-79
2022/09/25 14:57:47;;;;;;;16.13;11.05;;;;;;;;;;5094907;28;20024;-79
2022/09/25 15:00:19;;;;;;;19.45;13.02;;;;;;;;;;5093359;28;20415;-79
2022/09/25 15:02:46;;;;;;;16.02;10.93;;;;;;;;;;5094666;28;20472;-80
2022/09/25 15:05:22;;;;;;;17.88;12.15;;;;;;;;;;5094552;28;20024;-79
2022/09/25 15:07:49;;;;;;;18.30;11.45;;;;;;;;;;5094704;28;20020;-79
2022/09/25 15:10:24;;;;;;;18.45;11.75;;;;;;;;;;5094254;28;20032;-79
2022/09/25 15:12:50;;;;;;;17.95;10.65;;;;;;;;;;5095691;28;20077;-78
2022/09/25 15:15:17;;;;;;;14.70;10.35;;;;;;;;;;5094551;28;20020;-76
2022/09/25 15:17:54;;;;;;;14.38;10.75;;;;;;;;;;5094526;28;20123;-83